Pernille — 5BNZ2 — position and weather

sailwx.info

Track history (hours):
 
Tides and Currents Weather Stations Pressure Air Temp Water Temp Dewpoint Dewpoint Depression Visibility Wind Speed Wind Dir Waves Ship Positions

Pernille

Last reported at 2014-Sep-23 20:07 UTC. Time now 2014-Oct-01 08:24 UTC.
Position N 59°59' E 026°47'.

Length 82 m; draft 3.2 m.

Type: Cargo ship. MMSI: 212662000.

Date/timePositionNaut miles runAvg speedWind from/ knotsBaromVisibWave heightAir tempDewpointWater temp
2014-Sep-23 20:07N 59°59' E 026°47'810.8
2014-Sep-23 19:25N 59°59' E 026°32'5710.9
2014-Sep-23 14:08N 59°45' E 024°42'611.0
2014-Sep-23 13:34N 59°43' E 024°29'  
2014-Sep-20 23:29N 56°56' E 018°60'1311.9
2014-Sep-20 22:21N 56°50' E 018°38'1011.8
2014-Sep-20 21:33N 56°45' E 018°23'1211.7
2014-Sep-20 20:33N 56°38' E 018°07'1211.8
2014-Sep-20 19:33N 56°31' E 017°50'1211.7
2014-Sep-20 18:33N 56°23' E 017°33'1311.9
2014-Sep-20 17:26N 56°15' E 017°14'1011.7
2014-Sep-20 16:33N 56°09' E 016°59'7011.6
2014-Sep-20 10:31N 55°33' E 015°12'1111.6
2014-Sep-20 09:33N 55°28' E 014°55'1211.6
2014-Sep-20 08:33N 55°21' E 014°38'1111.4
2014-Sep-20 07:33N 55°12' E 014°26'1111.2
2014-Sep-20 06:33N 55°04' E 014°13'1111.3
2014-Sep-20 05:34N 54°59' E 013°55'1211.5
2014-Sep-20 04:34N 54°55' E 013°36'1111.4
2014-Sep-20 03:33N 54°51' E 013°18'1211.5
2014-Sep-20 02:33N 54°46' E 012°59'1211.6
2014-Sep-20 01:33N 54°39' E 012°43'1111.4
2014-Sep-20 00:33N 54°34' E 012°25'1111.0
2014-Sep-19 23:33N 54°26' E 012°12'1111.3
2014-Sep-19 22:34N 54°25' E 011°53'1110.9
2014-Sep-19 21:34N 54°28' E 011°35'1211.5
2014-Sep-19 20:33N 54°33' E 011°17'1110.9
2014-Sep-19 19:33N 54°35' E 010°59'3511.4
2014-Sep-19 16:29N 54°55' E 010°09'1111.5
2014-Sep-19 15:33N 55°04' E 009°59'1211.3
2014-Sep-19 14:28N 55°15' E 009°49'8 0.3
2014-Sep-18 07:10N 55°08' E 009°56'1211.3
2014-Sep-18 06:08N 54°58' E 010°06'4011.3
2014-Sep-18 02:33N 54°37' E 011°06'1212.0
2014-Sep-18 01:33N 54°32' E 011°25'1111.2
2014-Sep-18 00:33N 54°29' E 011°43'1211.5
2014-Sep-17 23:33N 54°27' E 012°03'1010.2
2014-Sep-17 22:33N 54°33' E 012°16'1311.7
2014-Sep-17 21:29N 54°38' E 012°36'1111.4
2014-Sep-17 20:33N 54°41' E 012°53'1111.5
2014-Sep-17 19:33N 54°44' E 013°12'1111.1
2014-Sep-17 18:33N 54°48' E 013°31'1110.9
2014-Sep-17 17:33N 54°51' E 013°49'1111.2
2014-Sep-17 16:33N 54°54' E 014°08'1111.0
2014-Sep-17 15:33N 54°55' E 014°27'2711.1
2014-Sep-17 13:07N 54°57' E 015°14'8811.0
2014-Sep-17 05:09N 54°55' E 017°47'711.3
2014-Sep-17 04:33N 54°55' E 017°58'1111.0
2014-Sep-17 03:33N 54°55' E 018°17'1111.3
2014-Sep-17 02:33N 54°55' E 018°37'1111.3
2014-Sep-17 01:33N 54°52' E 018°56'1111.2
2014-Sep-17 00:33N 54°49' E 019°14'1111.2
2014-Sep-16 23:34N 54°46' E 019°33'1111.1
2014-Sep-16 22:33N 54°40' E 019°49'4 2.8
2014-Sep-16 21:13N 54°38' E 019°55'0 0.0
2014-Sep-16 18:29N 54°38' E 019°55'0 0.0
2014-Sep-16 16:26N 54°38' E 019°55'3 3.4
2014-Sep-16 15:32N 54°39' E 019°50'1010.1
2014-Sep-16 14:33N 54°42' E 019°34'1111.0
2014-Sep-16 13:33N 54°42' E 019°15'1010.5
2014-Sep-16 12:33N 54°39' E 018°58'1110.5
2014-Sep-16 11:33N 54°32' E 018°45'6 6.5
2014-Sep-16 10:33N 54°32' E 018°33'0 0.0
2014-Sep-16 09:31N 54°32' E 018°33'0 0.0
2014-Sep-16 08:31N 54°32' E 018°33'0 0.0
2014-Sep-16 07:31N 54°32' E 018°33'0 0.0
2014-Sep-16 06:31N 54°32' E 018°33'0 0.0
2014-Sep-16 05:31N 54°32' E 018°33'0 0.0
2014-Sep-16 04:31N 54°32' E 018°33'0 0.0
2014-Sep-16 03:31N 54°32' E 018°33'0 0.0
2014-Sep-16 02:31N 54°32' E 018°33'0 0.0
2014-Sep-16 01:31N 54°32' E 018°33'0 0.0
2014-Sep-16 00:31N 54°32' E 018°33'0 0.0
2014-Sep-15 23:31N 54°32' E 018°33'0 0.0
2014-Sep-15 22:31N 54°32' E 018°33'0 0.0
2014-Sep-15 21:31N 54°32' E 018°33'0 0.0
2014-Sep-15 20:31N 54°32' E 018°33'0 0.0
2014-Sep-15 19:31N 54°32' E 018°33'0 0.0
2014-Sep-15 18:28N 54°32' E 018°33'0 0.0
2014-Sep-15 17:31N 54°32' E 018°33'0 0.0
2014-Sep-15 16:31N 54°32' E 018°33'0 0.0
2014-Sep-15 15:31N 54°32' E 018°33'0 0.0
2014-Sep-15 14:31N 54°32' E 018°33'0 0.0
2014-Sep-15 13:31N 54°32' E 018°33'0 0.0
2014-Sep-15 12:31N 54°32' E 018°33'0 0.0
2014-Sep-15 11:31N 54°32' E 018°33'0 0.0
2014-Sep-15 10:31N 54°32' E 018°33'0 0.0
2014-Sep-15 09:31N 54°32' E 018°33'0 0.0
2014-Sep-15 08:31N 54°32' E 018°33'0 0.0
2014-Sep-15 07:31N 54°32' E 018°33'0 0.0
2014-Sep-15 06:31N 54°32' E 018°33'0 0.0
2014-Sep-15 05:31N 54°32' E 018°33'0 0.0
2014-Sep-15 04:31N 54°32' E 018°33'0 0.0
2014-Sep-15 03:31N 54°32' E 018°33'0 0.0
2014-Sep-15 02:31N 54°32' E 018°33'0 0.0
2014-Sep-15 01:31N 54°32' E 018°33'0 0.0
2014-Sep-15 00:31N 54°32' E 018°33'0 0.0
2014-Sep-14 23:28N 54°32' E 018°33'0 0.0
2014-Sep-14 22:31N 54°32' E 018°33'0 0.0
2014-Sep-14 21:31N 54°32' E 018°33'0 0.0
2014-Sep-14 20:31N 54°32' E 018°33'0 0.0
2014-Sep-14 19:31N 54°32' E 018°33'0 0.0
2014-Sep-14 18:33N 54°32' E 018°33'0 0.0
2014-Sep-14 17:33N 54°32' E 018°33'0 0.0
2014-Sep-14 16:33N 54°32' E 018°33'0 0.0
2014-Sep-14 15:33N 54°32' E 018°33'0 0.0
2014-Sep-14 14:33N 54°32' E 018°33'0 0.0
2014-Sep-14 13:33N 54°32' E 018°33'0 0.0
2014-Sep-14 12:27N 54°32' E 018°33'0 0.0
2014-Sep-14 11:33N 54°32' E 018°33'0 0.0
2014-Sep-14 10:33N 54°32' E 018°33'0 0.0
2014-Sep-14 09:33N 54°32' E 018°33'0 0.0
2014-Sep-14 08:33N 54°32' E 018°33'0 0.0
2014-Sep-14 07:33N 54°32' E 018°33'0 0.0
2014-Sep-14 06:27N 54°32' E 018°33'0 0.0
2014-Sep-14 05:33N 54°32' E 018°33'0 0.0
2014-Sep-14 04:33N 54°32' E 018°33'0 0.0
2014-Sep-14 03:33N 54°32' E 018°33'0 0.0
2014-Sep-14 02:33N 54°32' E 018°33'0 0.0
2014-Sep-14 01:27N 54°32' E 018°33'0 0.0
2014-Sep-13 21:27N 54°32' E 018°33'0 0.0
2014-Sep-13 20:27N 54°32' E 018°33'  
Track history (hours):
 
Tides and Currents Weather Stations Pressure Air Temp Water Temp Dewpoint Dewpoint Depression Visibility Wind Speed Wind Dir Waves Ship Positions

Pernille

Last reported at 2014-Sep-23 20:07 UTC. Time now 2014-Oct-01 08:24 UTC.
Position N 59°59' E 026°47'.

Length 82 m; draft 3.2 m.

Type: Cargo ship. MMSI: 212662000.

Date/timePositionNaut miles runAvg speedWind from/ knotsBaromVisibWave heightAir tempDewpointWater temp
2014-Sep-23 20:07N 59°59' E 026°47'810.8
2014-Sep-23 19:25N 59°59' E 026°32'5710.9
2014-Sep-23 14:08N 59°45' E 024°42'611.0
2014-Sep-23 13:34N 59°43' E 024°29'  
2014-Sep-20 23:29N 56°56' E 018°60'1311.9
2014-Sep-20 22:21N 56°50' E 018°38'1011.8
2014-Sep-20 21:33N 56°45' E 018°23'1211.7
2014-Sep-20 20:33N 56°38' E 018°07'1211.8
2014-Sep-20 19:33N 56°31' E 017°50'1211.7
2014-Sep-20 18:33N 56°23' E 017°33'1311.9
2014-Sep-20 17:26N 56°15' E 017°14'1011.7
2014-Sep-20 16:33N 56°09' E 016°59'7011.6
2014-Sep-20 10:31N 55°33' E 015°12'1111.6
2014-Sep-20 09:33N 55°28' E 014°55'1211.6
2014-Sep-20 08:33N 55°21' E 014°38'1111.4
2014-Sep-20 07:33N 55°12' E 014°26'1111.2
2014-Sep-20 06:33N 55°04' E 014°13'1111.3
2014-Sep-20 05:34N 54°59' E 013°55'1211.5
2014-Sep-20 04:34N 54°55' E 013°36'1111.4
2014-Sep-20 03:33N 54°51' E 013°18'1211.5
2014-Sep-20 02:33N 54°46' E 012°59'1211.6
2014-Sep-20 01:33N 54°39' E 012°43'1111.4
2014-Sep-20 00:33N 54°34' E 012°25'1111.0
2014-Sep-19 23:33N 54°26' E 012°12'1111.3
2014-Sep-19 22:34N 54°25' E 011°53'1110.9
2014-Sep-19 21:34N 54°28' E 011°35'1211.5
2014-Sep-19 20:33N 54°33' E 011°17'1110.9
2014-Sep-19 19:33N 54°35' E 010°59'3511.4
2014-Sep-19 16:29N 54°55' E 010°09'1111.5
2014-Sep-19 15:33N 55°04' E 009°59'1211.3
2014-Sep-19 14:28N 55°15' E 009°49'8 0.3
2014-Sep-18 07:10N 55°08' E 009°56'1211.3
2014-Sep-18 06:08N 54°58' E 010°06'4011.3
2014-Sep-18 02:33N 54°37' E 011°06'1212.0
2014-Sep-18 01:33N 54°32' E 011°25'1111.2
2014-Sep-18 00:33N 54°29' E 011°43'1211.5
2014-Sep-17 23:33N 54°27' E 012°03'1010.2
2014-Sep-17 22:33N 54°33' E 012°16'1311.7
2014-Sep-17 21:29N 54°38' E 012°36'1111.4
2014-Sep-17 20:33N 54°41' E 012°53'1111.5
2014-Sep-17 19:33N 54°44' E 013°12'1111.1
2014-Sep-17 18:33N 54°48' E 013°31'1110.9
2014-Sep-17 17:33N 54°51' E 013°49'1111.2
2014-Sep-17 16:33N 54°54' E 014°08'1111.0
2014-Sep-17 15:33N 54°55' E 014°27'2711.1
2014-Sep-17 13:07N 54°57' E 015°14'8811.0
2014-Sep-17 05:09N 54°55' E 017°47'711.3
2014-Sep-17 04:33N 54°55' E 017°58'1111.0
2014-Sep-17 03:33N 54°55' E 018°17'1111.3
2014-Sep-17 02:33N 54°55' E 018°37'1111.3
2014-Sep-17 01:33N 54°52' E 018°56'1111.2
2014-Sep-17 00:33N 54°49' E 019°14'1111.2
2014-Sep-16 23:34N 54°46' E 019°33'1111.1
2014-Sep-16 22:33N 54°40' E 019°49'4 2.8
2014-Sep-16 21:13N 54°38' E 019°55'0 0.0
2014-Sep-16 18:29N 54°38' E 019°55'0 0.0
2014-Sep-16 16:26N 54°38' E 019°55'3 3.4
2014-Sep-16 15:32N 54°39' E 019°50'1010.1
2014-Sep-16 14:33N 54°42' E 019°34'1111.0
2014-Sep-16 13:33N 54°42' E 019°15'1010.5
2014-Sep-16 12:33N 54°39' E 018°58'1110.5
2014-Sep-16 11:33N 54°32' E 018°45'6 6.5
2014-Sep-16 10:33N 54°32' E 018°33'0 0.0
2014-Sep-16 09:31N 54°32' E 018°33'0 0.0
2014-Sep-16 08:31N 54°32' E 018°33'0 0.0
2014-Sep-16 07:31N 54°32' E 018°33'0 0.0
2014-Sep-16 06:31N 54°32' E 018°33'0 0.0
2014-Sep-16 05:31N 54°32' E 018°33'0 0.0
2014-Sep-16 04:31N 54°32' E 018°33'0 0.0
2014-Sep-16 03:31N 54°32' E 018°33'0 0.0
2014-Sep-16 02:31N 54°32' E 018°33'0 0.0
2014-Sep-16 01:31N 54°32' E 018°33'0 0.0
2014-Sep-16 00:31N 54°32' E 018°33'0 0.0
2014-Sep-15 23:31N 54°32' E 018°33'0 0.0
2014-Sep-15 22:31N 54°32' E 018°33'0 0.0
2014-Sep-15 21:31N 54°32' E 018°33'0 0.0
2014-Sep-15 20:31N 54°32' E 018°33'0 0.0
2014-Sep-15 19:31N 54°32' E 018°33'0 0.0
2014-Sep-15 18:28N 54°32' E 018°33'0 0.0
2014-Sep-15 17:31N 54°32' E 018°33'0 0.0
2014-Sep-15 16:31N 54°32' E 018°33'0 0.0
2014-Sep-15 15:31N 54°32' E 018°33'0 0.0
2014-Sep-15 14:31N 54°32' E 018°33'0 0.0
2014-Sep-15 13:31N 54°32' E 018°33'0 0.0
2014-Sep-15 12:31N 54°32' E 018°33'0 0.0
2014-Sep-15 11:31N 54°32' E 018°33'0 0.0
2014-Sep-15 10:31N 54°32' E 018°33'0 0.0
2014-Sep-15 09:31N 54°32' E 018°33'0 0.0
2014-Sep-15 08:31N 54°32' E 018°33'0 0.0
2014-Sep-15 07:31N 54°32' E 018°33'0 0.0
2014-Sep-15 06:31N 54°32' E 018°33'0 0.0
2014-Sep-15 05:31N 54°32' E 018°33'0 0.0
2014-Sep-15 04:31N 54°32' E 018°33'0 0.0
2014-Sep-15 03:31N 54°32' E 018°33'0 0.0
2014-Sep-15 02:31N 54°32' E 018°33'0 0.0
2014-Sep-15 01:31N 54°32' E 018°33'0 0.0
2014-Sep-15 00:31N 54°32' E 018°33'0 0.0
2014-Sep-14 23:28N 54°32' E 018°33'0 0.0
2014-Sep-14 22:31N 54°32' E 018°33'0 0.0
2014-Sep-14 21:31N 54°32' E 018°33'0 0.0
2014-Sep-14 20:31N 54°32' E 018°33'0 0.0
2014-Sep-14 19:31N 54°32' E 018°33'0 0.0
2014-Sep-14 18:33N 54°32' E 018°33'0 0.0
2014-Sep-14 17:33N 54°32' E 018°33'0 0.0
2014-Sep-14 16:33N 54°32' E 018°33'0 0.0
2014-Sep-14 15:33N 54°32' E 018°33'0 0.0
2014-Sep-14 14:33N 54°32' E 018°33'0 0.0
2014-Sep-14 13:33N 54°32' E 018°33'0 0.0
2014-Sep-14 12:27N 54°32' E 018°33'0 0.0
2014-Sep-14 11:33N 54°32' E 018°33'0 0.0
2014-Sep-14 10:33N 54°32' E 018°33'0 0.0
2014-Sep-14 09:33N 54°32' E 018°33'0 0.0
2014-Sep-14 08:33N 54°32' E 018°33'0 0.0
2014-Sep-14 07:33N 54°32' E 018°33'0 0.0
2014-Sep-14 06:27N 54°32' E 018°33'0 0.0
2014-Sep-14 05:33N 54°32' E 018°33'0 0.0
2014-Sep-14 04:33N 54°32' E 018°33'0 0.0
2014-Sep-14 03:33N 54°32' E 018°33'0 0.0
2014-Sep-14 02:33N 54°32' E 018°33'0 0.0
2014-Sep-14 01:27N 54°32' E 018°33'0 0.0
2014-Sep-13 21:27N 54°32' E 018°33'0 0.0
2014-Sep-13 20:27N 54°32' E 018°33'  

Dump ship's entire track history